Mathilde Maersk — OUJS2 — position and weather

sailwx.info

Track history (hours):
 
Tides and Currents Weather Stations Pressure Air Temp Water Temp Dewpoint Dewpoint Depression Visibility Wind Speed Wind Dir Waves Ship Positions

Mathilde Maersk

Last reported at 2016-Jun-26 18:33 UTC. Time now 2016-Jun-27 00:39 UTC.
Position N 23°49' E 118°24'.

Length 367 m; draft 12.2 m.

Type: Ship (hazmat cat B). MMSI: 220597990.

Date/timePositionNaut miles runAvg speedWind from/ knotsBaromVisibWave heightAir tempDewpointWater temp
2016-Jun-26 18:33N 23°49' E 118°24'1816.8
2016-Jun-26 17:30N 23°37' E 118°11'8615.9
2016-Jun-26 12:04N 22°54' E 116°49'17114.9
2016-Jun-26 00:33N 22°12' E 113°49'1212.5
2016-Jun-25 23:33N 22°24' E 113°51'5 5.1
2016-Jun-25 22:33N 22°29' E 113°52'0 0.0
2016-Jun-25 21:21N 22°29' E 113°52'0 0.0
2016-Jun-25 17:09N 22°29' E 113°52'1 0.1
2016-Jun-25 05:33N 22°28' E 113°52'1110.7
2016-Jun-25 04:32N 22°18' E 113°48'  
2016-Jun-20 00:32N 01°16' E 104°08'2222.7
2016-Jun-19 23:33N 01°08' E 103°47'88 1.8
2016-Jun-17 23:12N 01°48' E 102°27'1014.9
2016-Jun-17 22:33N 01°52' E 102°19'  
Track history (hours):
 
Tides and Currents Weather Stations Pressure Air Temp Water Temp Dewpoint Dewpoint Depression Visibility Wind Speed Wind Dir Waves Ship Positions

Mathilde Maersk

Last reported at 2016-Jun-26 18:33 UTC. Time now 2016-Jun-27 00:39 UTC.
Position N 23°49' E 118°24'.

Length 367 m; draft 12.2 m.

Type: Ship (hazmat cat B). MMSI: 220597990.

Date/timePositionNaut miles runAvg speedWind from/ knotsBaromVisibWave heightAir tempDewpointWater temp
2016-Jun-26 18:33N 23°49' E 118°24'1816.8
2016-Jun-26 17:30N 23°37' E 118°11'8615.9
2016-Jun-26 12:04N 22°54' E 116°49'17114.9
2016-Jun-26 00:33N 22°12' E 113°49'1212.5
2016-Jun-25 23:33N 22°24' E 113°51'5 5.1
2016-Jun-25 22:33N 22°29' E 113°52'0 0.0
2016-Jun-25 21:21N 22°29' E 113°52'0 0.0
2016-Jun-25 17:09N 22°29' E 113°52'1 0.1
2016-Jun-25 05:33N 22°28' E 113°52'1110.7
2016-Jun-25 04:32N 22°18' E 113°48'  
2016-Jun-20 00:32N 01°16' E 104°08'2222.7
2016-Jun-19 23:33N 01°08' E 103°47'88 1.8
2016-Jun-17 23:12N 01°48' E 102°27'1014.9
2016-Jun-17 22:33N 01°52' E 102°19'  

Dump ship's entire track history